Ama, Louisiana
Current Conditions -  °F | °C
As of 3:53 PM on Friday 31 Oct 2014 (Local Time) from KMSY Reporting Station
Few Clouds Few Clouds  
Wind Chill: 74°   Ceiling: Unl
Heat Index: 74°   Visibility: 10mi
Dew Point: 44°   Wind: 21mph
Humidity: 34%   Direction: 320°NW
Pressure: 30.01"   Gusts: 26mph
Location:  29.95°N, 90.3°W
Report Text: KMSY 312053Z 32018G23KT 10SM FEW040 FEW250 23/07 A3001 RMK AO2 SLP164 T02330067 55010
Loading
Personal Weather Stations






























Interactive Weather Map New forecast layout! Learn more

10-Day Weather Forecast

Advertisements
Track Severe Weather on mobile